Terminal Aerodrome Forecast
Issued by NWS Pocatello, ID

Home | Current Version | Previous Version | Text Only | Print | Product List | Glossary On
Versions: 1 2 3 4 5 6 7 8 9 10 11 12
000
FTUS45 KPIH 152300
TAFBYI
TAF
KBYI 152321Z 1600/1624 VRB05KT P6SM FEW100
     FM160300 VRB05KT P6SM FEW100 BKN250
     FM161800 VRB05KT P6SM VCTS FEW100CB=

USA.gov is the U.S. government's official web portal to all federal, state and local government web resources and services.